createdAt,value
2023-04-26T00:00:09.013Z,3.55
2023-04-26T00:03:01.025Z,4.53
2023-04-26T00:05:30.056Z,4.40
2023-04-26T00:07:58.470Z,4.20
2023-04-26T00:10:27.217Z,3.88
2023-04-26T00:12:55.340Z,3.67
2023-04-26T00:15:23.890Z,4.00
2023-04-26T00:17:52.102Z,3.75
2023-04-26T00:20:22.003Z,3.63
2023-04-26T00:22:50.157Z,3.28
2023-04-26T00:25:18.703Z,3.55
2023-04-26T00:27:46.983Z,4.85
2023-04-26T00:30:16.270Z,4.25
2023-04-26T00:32:44.453Z,4.53
2023-04-26T00:35:12.912Z,4.18
2023-04-26T00:37:42.726Z,4.38
2023-04-26T00:40:12.510Z,4.63
2023-04-26T00:42:41.053Z,4.07
2023-04-26T00:45:10.163Z,4.13
2023-04-26T00:47:38.497Z,4.60
2023-04-26T00:50:08.680Z,4.15
2023-04-26T00:52:36.908Z,4.47
2023-04-26T00:55:07.906Z,3.63
2023-04-26T00:57:36.221Z,3.92
2023-04-26T01:00:05.306Z,4.05
2023-04-26T01:02:33.710Z,3.80
2023-04-26T01:05:02.338Z,3.28
2023-04-26T01:07:30.527Z,3.55
2023-04-26T01:09:59.702Z,2.85
2023-04-26T01:12:29.580Z,3.20
2023-04-26T01:14:58.407Z,3.40
2023-04-26T01:17:26.666Z,3.70
2023-04-26T01:19:55.428Z,3.70
2023-04-26T01:22:23.605Z,2.97
2023-04-26T01:24:56.489Z,3.10
2023-04-26T01:27:24.625Z,3.55
2023-04-26T01:29:53.134Z,3.10
2023-04-26T01:32:21.378Z,3.65
2023-04-26T01:34:49.785Z,3.97
2023-04-26T01:37:17.932Z,4.32
2023-04-26T01:39:46.625Z,3.50
2023-04-26T01:42:16.280Z,4.00
2023-04-26T01:44:44.814Z,3.83
2023-04-26T01:47:13.022Z,3.92
2023-04-26T01:49:41.703Z,3.22
2023-04-26T01:52:09.873Z,3.08
2023-04-26T01:54:38.548Z,3.28
2023-04-26T01:57:06.952Z,3.33
2023-04-26T01:59:36.726Z,3.15
2023-04-26T02:02:05.484Z,3.20
2023-04-26T02:04:34.117Z,3.75
2023-04-26T02:07:02.312Z,3.38
2023-04-26T02:09:30.880Z,3.70
2023-04-26T02:11:58.939Z,3.20
2023-04-26T02:14:27.459Z,3.30
2023-04-26T02:16:57.221Z,3.10
2023-04-26T02:19:26.003Z,4.28
2023-04-26T02:21:56.258Z,3.53
2023-04-26T02:24:24.872Z,3.60
2023-04-26T02:26:54.595Z,3.92
2023-04-26T02:29:40.007Z,4.40
2023-04-26T02:32:12.892Z,4.57
2023-04-26T02:34:41.776Z,5.32
2023-04-26T02:37:10.168Z,4.13
2023-04-26T02:39:38.655Z,5.18
2023-04-26T02:42:10.212Z,4.40
2023-04-26T02:44:39.705Z,4.90
2023-04-26T02:47:08.242Z,4.85
2023-04-26T02:49:38.184Z,4.72
2023-04-26T02:52:06.402Z,4.47
2023-04-26T02:54:34.894Z,5.18
2023-04-26T02:57:02.981Z,5.13
2023-04-26T02:59:31.578Z,4.93
2023-04-26T03:01:59.837Z,5.43
2023-04-26T03:04:28.944Z,5.22
2023-04-26T03:06:58.480Z,5.03
2023-04-26T03:09:26.977Z,4.15
2023-04-26T03:11:55.147Z,4.85
2023-04-26T03:14:23.659Z,5.22
2023-04-26T03:16:51.835Z,5.13
2023-04-26T03:19:21.325Z,5.03
2023-04-26T03:21:49.522Z,4.53
2023-04-26T03:24:19.358Z,4.22
2023-04-26T03:26:47.618Z,4.88
2023-04-26T03:29:16.317Z,4.80
2023-04-26T03:31:44.703Z,4.85
2023-04-26T03:34:13.302Z,4.53
2023-04-26T03:36:41.531Z,4.82
2023-04-26T03:39:10.372Z,5.60
2023-04-26T03:41:40.590Z,5.05
2023-04-26T03:44:09.107Z,5.23
2023-04-26T03:46:37.384Z,4.75
2023-04-26T03:49:05.755Z,4.55
2023-04-26T03:51:34.030Z,5.47
2023-04-26T03:54:02.560Z,5.20
2023-04-26T03:56:31.089Z,4.40
2023-04-26T03:59:01.039Z,4.78
2023-04-26T04:01:29.211Z,5.03
2023-04-26T04:03:57.810Z,5.40
2023-04-26T04:06:26.598Z,5.93
2023-04-26T04:08:55.504Z,6.00
2023-04-26T04:11:23.862Z,5.10
2023-04-26T04:13:52.322Z,5.40
2023-04-26T04:16:22.026Z,5.28
2023-04-26T04:18:50.896Z,5.55
2023-04-26T04:21:19.345Z,5.10
2023-04-26T04:23:48.232Z,5.22
2023-04-26T04:26:17.564Z,5.28
2023-04-26T04:28:47.302Z,4.93
2023-04-26T04:31:15.967Z,4.88
2023-04-26T04:33:45.901Z,4.72
2023-04-26T04:36:16.938Z,5.45
2023-04-26T04:41:13.451Z,4.88
2023-04-26T04:43:41.882Z,5.53
2023-04-26T04:46:12.733Z,4.57
2023-04-26T04:51:12.091Z,4.65
2023-04-26T04:53:40.752Z,5.15
2023-04-26T04:56:09.316Z,4.43
2023-04-26T04:58:38.135Z,4.35
2023-04-26T05:01:07.188Z,5.18
2023-04-26T05:03:35.844Z,4.57
2023-04-26T05:06:04.077Z,4.55
2023-04-26T05:08:33.869Z,4.90
2023-04-26T05:11:03.109Z,4.20
2023-04-26T05:13:31.592Z,5.20
2023-04-26T05:15:59.812Z,5.53
2023-04-26T05:18:28.361Z,5.22
2023-04-26T05:20:56.631Z,4.88
2023-04-26T05:23:25.091Z,5.15
2023-04-26T05:25:54.571Z,4.55
2023-04-26T05:28:23.184Z,4.07
2023-04-26T05:30:51.417Z,4.63
2023-04-26T05:33:19.962Z,3.83
2023-04-26T05:35:48.178Z,4.28
2023-04-26T05:38:16.749Z,3.95
2023-04-26T05:40:44.981Z,3.90
2023-04-26T05:43:14.759Z,3.45
2023-04-26T05:45:51.922Z,3.40
2023-04-26T05:48:21.885Z,3.33
2023-04-26T05:50:50.187Z,3.60
2023-04-26T05:53:19.254Z,3.38
2023-04-26T05:55:47.522Z,3.65
2023-04-26T05:58:17.459Z,3.10
2023-04-26T06:00:45.614Z,3.65
2023-04-26T06:03:14.350Z,3.20
2023-04-26T06:05:42.799Z,3.45
2023-04-26T06:08:11.352Z,3.45
2023-04-26T06:10:39.469Z,2.80
2023-04-26T06:13:07.998Z,3.50
2023-04-26T06:15:37.633Z,3.20
2023-04-26T06:18:06.530Z,2.72
2023-04-26T06:20:34.905Z,2.88
2023-04-26T06:23:03.365Z,2.33
2023-04-26T06:25:32.165Z,2.15
2023-04-26T06:28:00.837Z,1.98
2023-04-26T06:30:29.121Z,2.92
2023-04-26T06:33:00.330Z,2.20
2023-04-26T06:35:28.749Z,2.25
2023-04-26T06:37:57.294Z,2.10
2023-04-26T06:40:25.512Z,2.10
2023-04-26T06:42:54.512Z,2.28
2023-04-26T06:45:22.842Z,2.60
2023-04-26T06:47:52.774Z,3.15
2023-04-26T06:50:22.736Z,2.63
2023-04-26T06:52:51.598Z,2.22
2023-04-26T06:55:20.131Z,2.30
2023-04-26T06:57:48.799Z,2.22
2023-04-26T07:00:18.025Z,2.65
2023-04-26T07:02:47.137Z,2.25
2023-04-26T07:05:16.280Z,2.90
2023-04-26T07:07:46.240Z,2.70
2023-04-26T07:10:14.853Z,2.20
2023-04-26T07:12:43.409Z,2.10
2023-04-26T07:15:12.553Z,2.03
2023-04-26T07:17:41.245Z,1.98
2023-04-26T07:20:10.577Z,2.28
2023-04-26T07:22:39.615Z,1.83
2023-04-26T07:25:09.807Z,2.40
2023-04-26T07:27:38.620Z,1.85
2023-04-26T07:30:08.198Z,2.20
2023-04-26T07:32:37.030Z,2.45
2023-04-26T07:35:08.511Z,2.33
2023-04-26T07:37:37.079Z,2.03
2023-04-26T07:40:08.381Z,2.50
2023-04-26T07:42:38.402Z,1.98
2023-04-26T07:45:08.593Z,2.33
2023-04-26T07:47:37.340Z,2.80
2023-04-26T07:50:06.591Z,2.10
2023-04-26T07:52:36.135Z,1.60
2023-04-26T07:55:04.638Z,2.25
2023-04-26T07:57:33.209Z,2.75
2023-04-26T08:00:03.020Z,1.90
2023-04-26T08:02:43.301Z,2.47
2023-04-26T08:05:13.376Z,2.17
2023-04-26T08:07:42.418Z,1.98
2023-04-26T08:10:11.824Z,2.08
2023-04-26T08:12:40.827Z,2.10
2023-04-26T08:15:12.141Z,2.95
2023-04-26T08:17:41.697Z,1.90
2023-04-26T08:20:10.928Z,2.30
2023-04-26T08:22:39.480Z,1.92
2023-04-26T08:25:08.297Z,1.80
2023-04-26T08:27:37.540Z,2.15
2023-04-26T08:30:06.936Z,2.00
2023-04-26T08:32:37.104Z,2.00
2023-04-26T08:35:06.046Z,1.80
2023-04-26T08:37:35.874Z,1.67
2023-04-26T08:40:04.868Z,1.70
2023-04-26T08:42:34.712Z,1.25
2023-04-26T08:45:05.058Z,2.50
2023-04-26T08:47:42.550Z,1.73
2023-04-26T08:50:14.672Z,2.20
2023-04-26T08:52:46.662Z,1.33
2023-04-26T08:55:16.548Z,1.60
2023-04-26T08:57:45.569Z,1.73
2023-04-26T09:00:16.054Z,1.73
2023-04-26T09:02:48.647Z,1.50
2023-04-26T09:05:17.229Z,2.28
2023-04-26T09:07:47.018Z,2.00
2023-04-26T09:10:21.470Z,2.22
2023-04-26T09:12:53.723Z,2.15
2023-04-26T09:15:22.919Z,1.92
2023-04-26T09:17:53.321Z,1.73
2023-04-26T09:20:24.169Z,3.88
2023-04-26T09:22:54.296Z,2.65
2023-04-26T09:25:29.444Z,1.27
2023-04-26T09:27:58.906Z,2.58
2023-04-26T09:30:27.949Z,1.80
2023-04-26T09:32:59.813Z,1.38
2023-04-26T09:35:30.904Z,2.15
2023-04-26T09:38:07.891Z,1.60
2023-04-26T09:40:41.135Z,1.70
2023-04-26T09:43:11.742Z,3.05
2023-04-26T09:45:49.199Z,1.90
2023-04-26T09:48:26.188Z,1.40
2023-04-26T09:50:55.714Z,2.35
2023-04-26T09:53:28.962Z,1.98
2023-04-26T09:55:58.274Z,1.63
2023-04-26T09:58:27.155Z,1.42
2023-04-26T10:00:56.052Z,1.48
2023-04-26T10:03:27.356Z,1.52
2023-04-26T10:05:56.057Z,1.00
2023-04-26T10:08:24.876Z,1.20
2023-04-26T10:10:53.447Z,1.42
2023-04-26T10:13:22.723Z,1.50
2023-04-26T10:15:51.458Z,1.25
2023-04-26T10:18:20.569Z,1.20
2023-04-26T10:20:53.216Z,2.00
2023-04-26T10:23:25.871Z,1.70
2023-04-26T10:25:54.760Z,1.30
2023-04-26T10:29:02.154Z,1.10
2023-04-26T10:32:05.348Z,1.50
2023-04-26T10:34:36.401Z,1.15
2023-04-26T10:37:12.798Z,1.08
2023-04-26T10:39:42.228Z,0.98
2023-04-26T10:42:30.466Z,1.20
2023-04-26T10:44:59.906Z,1.40
2023-04-26T10:47:30.844Z,2.22
2023-04-26T10:50:07.457Z,1.80
2023-04-26T10:52:38.382Z,1.80
2023-04-26T10:57:52.769Z,1.35
2023-04-26T11:00:32.783Z,14.52
2023-04-26T11:03:06.662Z,8.15
2023-04-26T11:05:37.733Z,3.92
2023-04-26T11:08:09.619Z,3.20
2023-04-26T11:10:41.711Z,3.20
2023-04-26T11:13:10.242Z,1.88
2023-04-26T11:15:38.922Z,2.22
2023-04-26T11:18:07.725Z,1.73
2023-04-26T11:20:36.595Z,2.53
2023-04-26T11:23:05.118Z,1.52
2023-04-26T11:25:35.232Z,1.60
2023-04-26T11:28:04.234Z,1.65
2023-04-26T11:30:33.520Z,1.30
2023-04-26T11:33:02.060Z,1.63
2023-04-26T11:35:31.049Z,1.42
2023-04-26T11:38:00.380Z,1.77
2023-04-26T11:40:30.298Z,2.08
2023-04-26T11:43:03.085Z,1.30
2023-04-26T11:45:33.846Z,1.17
2023-04-26T11:48:03.814Z,1.92
2023-04-26T11:50:33.587Z,1.85
2023-04-26T11:53:03.419Z,1.83
2023-04-26T11:55:34.305Z,1.98
2023-04-26T11:58:11.862Z,1.58
2023-04-26T12:00:59.009Z,1.40
2023-04-26T12:03:32.562Z,1.55
2023-04-26T12:06:01.521Z,1.63
2023-04-26T12:08:30.030Z,1.17
2023-04-26T12:11:01.265Z,1.25
2023-04-26T12:13:33.051Z,1.00
2023-04-26T12:16:02.639Z,1.80
2023-04-26T12:18:33.846Z,1.40
2023-04-26T12:21:02.613Z,1.42
2023-04-26T12:23:39.430Z,1.77
2023-04-26T12:26:11.186Z,1.20
2023-04-26T12:31:10.314Z,1.33
2023-04-26T12:33:38.772Z,1.30
2023-04-26T12:36:11.417Z,1.38
2023-04-26T12:38:40.494Z,1.48
2023-04-26T12:41:09.395Z,1.95
2023-04-26T12:43:37.809Z,2.03
2023-04-26T12:46:07.733Z,1.73
2023-04-26T12:48:36.334Z,2.55
2023-04-26T12:51:08.060Z,1.35
2023-04-26T12:53:36.908Z,1.60
2023-04-26T12:56:06.098Z,1.50
2023-04-26T12:58:34.617Z,1.40
2023-04-26T13:01:03.296Z,1.77
2023-04-26T13:03:33.255Z,1.67
2023-04-26T13:06:02.290Z,1.90
2023-04-26T13:08:32.834Z,1.10
2023-04-26T13:11:01.445Z,1.50
2023-04-26T13:13:42.270Z,1.00
2023-04-26T13:16:13.296Z,1.50
2023-04-26T13:18:43.336Z,1.55
2023-04-26T13:21:11.898Z,1.30
2023-04-26T13:23:40.370Z,1.15
2023-04-26T13:26:09.075Z,1.33
2023-04-26T13:28:37.670Z,1.42
2023-04-26T13:31:06.584Z,1.30
2023-04-26T13:33:34.946Z,1.10
2023-04-26T13:36:05.245Z,1.40
2023-04-26T13:38:33.589Z,1.80
2023-04-26T13:41:02.555Z,1.85
2023-04-26T13:43:30.880Z,1.10
2023-04-26T13:46:01.554Z,2.13
2023-04-26T13:48:29.845Z,2.85
2023-04-26T13:50:59.033Z,1.35
2023-04-26T13:53:28.787Z,1.90
2023-04-26T13:55:57.770Z,2.20
2023-04-26T13:58:26.336Z,2.20
2023-04-26T14:00:54.913Z,1.75
2023-04-26T14:03:23.439Z,1.55
2023-04-26T14:05:52.072Z,1.23
2023-04-26T14:08:20.502Z,1.85
2023-04-26T14:10:50.380Z,0.80
2023-04-26T14:13:18.686Z,0.80
2023-04-26T14:15:47.538Z,1.17
2023-04-26T14:18:16.070Z,1.17
2023-04-26T14:20:45.059Z,0.90
2023-04-26T14:23:13.422Z,1.00
2023-04-26T14:25:42.537Z,1.20
2023-04-26T14:28:12.679Z,1.00
2023-04-26T14:30:41.271Z,1.47
2023-04-26T14:33:09.568Z,1.30
2023-04-26T14:35:38.236Z,1.70
2023-04-26T14:38:06.619Z,1.77
2023-04-26T14:40:35.380Z,2.40
2023-04-26T14:43:03.783Z,1.45
2023-04-26T14:45:43.973Z,1.33
2023-04-26T14:48:13.113Z,1.30
2023-04-26T14:50:41.889Z,1.60
2023-04-26T14:53:11.223Z,1.67
2023-04-26T14:55:39.752Z,1.23
2023-04-26T14:58:08.677Z,1.10
2023-04-26T15:00:39.157Z,1.20
2023-04-26T15:03:07.849Z,1.20
2023-04-26T15:05:36.546Z,1.08
2023-04-26T15:08:05.281Z,1.10
2023-04-26T15:10:34.055Z,1.10
2023-04-26T15:13:02.505Z,1.30
2023-04-26T15:15:31.320Z,1.35
2023-04-26T15:18:01.970Z,2.72
2023-04-26T15:20:30.879Z,1.50
2023-04-26T15:22:59.132Z,1.10
2023-04-26T15:25:27.768Z,1.27
2023-04-26T15:27:57.523Z,1.35
2023-04-26T15:30:25.995Z,1.40
2023-04-26T15:32:54.307Z,1.23
2023-04-26T15:35:25.219Z,1.40
2023-04-26T15:37:54.180Z,2.90
2023-04-26T15:40:22.995Z,2.40
2023-04-26T15:42:52.036Z,1.90
2023-04-26T15:45:20.657Z,2.03
2023-04-26T15:47:49.127Z,1.40
2023-04-26T15:50:17.871Z,1.70
2023-04-26T15:52:47.668Z,1.30
2023-04-26T15:55:16.576Z,1.50
2023-04-26T15:57:48.386Z,1.30
2023-04-26T16:00:19.825Z,1.98
2023-04-26T16:02:48.346Z,1.40
2023-04-26T16:05:17.527Z,2.65
2023-04-26T16:07:47.382Z,2.22
2023-04-26T16:10:17.315Z,2.90
2023-04-26T16:12:45.610Z,2.05
2023-04-26T16:15:14.569Z,2.17
2023-04-26T16:17:42.916Z,1.77
2023-04-26T16:20:12.291Z,1.98
2023-04-26T16:22:40.816Z,1.90
2023-04-26T16:25:11.202Z,1.52
2023-04-26T16:27:39.440Z,2.20
2023-04-26T16:30:09.897Z,1.83
2023-04-26T16:32:38.311Z,1.50
2023-04-26T16:35:09.076Z,1.83
2023-04-26T16:37:39.380Z,1.48
2023-04-26T16:40:11.710Z,1.40
2023-04-26T16:42:43.364Z,1.55
2023-04-26T16:45:16.045Z,1.63
2023-04-26T16:47:45.063Z,7.47
2023-04-26T16:50:13.865Z,14.98
2023-04-26T16:52:42.709Z,2.70
2023-04-26T16:55:13.042Z,2.50
2023-04-26T16:57:42.130Z,3.28
2023-04-26T17:00:12.252Z,2.75
2023-04-26T17:02:42.111Z,2.55
2023-04-26T17:05:11.439Z,1.83
2023-04-26T17:07:39.894Z,1.70
2023-04-26T17:10:09.488Z,1.92
2023-04-26T17:12:39.346Z,2.70
2023-04-26T17:15:08.695Z,2.70
2023-04-26T17:17:37.539Z,2.15
2023-04-26T17:20:10.122Z,1.50
2023-04-26T17:22:39.600Z,2.00
2023-04-26T17:25:09.140Z,2.38
2023-04-26T17:27:38.876Z,2.15
2023-04-26T17:30:08.790Z,2.08
2023-04-26T17:32:37.323Z,2.10
2023-04-26T17:35:07.691Z,1.98
2023-04-26T17:37:36.086Z,2.38
2023-04-26T17:40:07.782Z,2.38
2023-04-26T17:45:07.553Z,3.00
2023-04-26T17:47:35.823Z,4.32
2023-04-26T17:50:04.529Z,5.80
2023-04-26T17:52:32.832Z,11.05
2023-04-26T17:55:01.684Z,9.10
2023-04-26T17:57:30.192Z,3.97
2023-04-26T17:59:58.849Z,4.50
2023-04-26T18:02:28.584Z,3.50
2023-04-26T18:04:57.538Z,3.75
2023-04-26T18:07:26.216Z,4.72
2023-04-26T18:09:54.871Z,3.53
2023-04-26T18:12:23.230Z,10.90
2023-04-26T18:14:52.382Z,32.00
2023-04-26T18:17:20.937Z,15.90
2023-04-26T18:19:50.979Z,9.77
2023-04-26T18:22:19.431Z,16.73
2023-04-26T18:24:48.234Z,13.43
2023-04-26T18:27:16.725Z,8.35
2023-04-26T18:29:45.288Z,8.25
2023-04-26T18:32:13.751Z,4.38
2023-04-26T18:34:42.408Z,3.95
2023-04-26T18:37:12.045Z,9.82
2023-04-26T18:39:40.628Z,6.68
2023-04-26T18:42:08.961Z,9.52
2023-04-26T18:44:37.717Z,4.75
2023-04-26T18:47:06.315Z,4.18
2023-04-26T18:49:35.077Z,4.28
2023-04-26T18:52:03.935Z,6.22
2023-04-26T18:54:34.902Z,6.28
2023-04-26T18:57:03.645Z,6.15
2023-04-26T18:59:32.634Z,5.10
2023-04-26T19:02:01.746Z,3.90
2023-04-26T19:04:30.766Z,5.32
2023-04-26T19:07:00.865Z,5.15
2023-04-26T19:09:39.681Z,5.35
2023-04-26T19:12:16.833Z,5.35
2023-04-26T19:14:45.588Z,5.82
2023-04-26T19:17:13.906Z,6.57
2023-04-26T19:19:42.533Z,6.70
2023-04-26T19:22:10.983Z,7.43
2023-04-26T19:24:39.563Z,8.00
2023-04-26T19:27:07.842Z,7.90
2023-04-26T19:29:37.911Z,7.60
2023-04-26T19:32:07.201Z,8.05
2023-04-26T19:34:38.931Z,6.35
2023-04-26T19:37:07.304Z,7.53
2023-04-26T19:39:36.020Z,7.32
2023-04-26T19:42:04.885Z,6.60
2023-04-26T19:44:33.576Z,7.22
2023-04-26T19:47:03.505Z,7.28
2023-04-26T19:49:32.363Z,9.27
2023-04-26T19:52:02.028Z,12.35
2023-04-26T19:54:30.678Z,11.73
2023-04-26T19:56:59.113Z,15.25
2023-04-26T19:59:27.801Z,14.05
2023-04-26T20:01:56.199Z,13.65
2023-04-26T20:04:26.454Z,11.05
2023-04-26T20:06:54.978Z,9.73
2023-04-26T20:09:23.510Z,9.75
2023-04-26T20:11:52.025Z,8.95
2023-04-26T20:14:20.693Z,8.40
2023-04-26T20:16:49.200Z,8.63
2023-04-26T20:19:17.830Z,9.85
2023-04-26T20:21:47.626Z,9.48
2023-04-26T20:24:16.590Z,10.00
2023-04-26T20:26:45.031Z,9.43
2023-04-26T20:29:13.672Z,10.27
2023-04-26T20:31:42.199Z,9.18
2023-04-26T20:34:10.865Z,9.65
2023-04-26T20:36:39.365Z,11.07
2023-04-26T20:39:10.798Z,10.82
2023-04-26T20:41:39.273Z,11.38
2023-04-26T20:44:07.956Z,12.80
2023-04-26T20:46:36.374Z,10.82
2023-04-26T20:49:06.881Z,8.68
2023-04-26T20:51:35.313Z,9.02
2023-04-26T20:54:03.950Z,8.25
2023-04-26T20:56:33.630Z,8.35
2023-04-26T20:59:02.195Z,9.35
2023-04-26T21:01:30.734Z,10.90
2023-04-26T21:03:59.351Z,11.75
2023-04-26T21:06:28.713Z,9.48
2023-04-26T21:08:57.488Z,9.90
2023-04-26T21:11:26.005Z,9.35
2023-04-26T21:13:56.149Z,11.35
2023-04-26T21:16:24.550Z,9.18
2023-04-26T21:18:53.045Z,8.52
2023-04-26T21:21:21.413Z,9.32
2023-04-26T21:23:50.024Z,8.73
2023-04-26T21:26:18.585Z,9.70
2023-04-26T21:28:47.145Z,11.27
2023-04-26T21:31:16.969Z,11.20
2023-04-26T21:33:45.641Z,9.35
2023-04-26T21:36:13.832Z,9.38
2023-04-26T21:38:42.452Z,8.93
2023-04-26T21:41:10.733Z,8.85
2023-04-26T21:43:39.338Z,7.68
2023-04-26T21:46:08.196Z,6.85
2023-04-26T21:48:38.934Z,7.53
2023-04-26T21:51:07.937Z,7.55
2023-04-26T21:53:36.518Z,6.93
2023-04-26T21:56:06.319Z,7.18
2023-04-26T21:58:34.947Z,7.05
2023-04-26T22:01:09.606Z,7.93
2023-04-26T22:03:39.975Z,7.47
2023-04-26T22:06:09.661Z,6.45
2023-04-26T22:08:38.735Z,6.90
2023-04-26T22:11:07.025Z,6.50
2023-04-26T22:13:35.898Z,6.32
2023-04-26T22:16:04.538Z,7.18
2023-04-26T22:18:33.360Z,7.47
2023-04-26T22:21:03.020Z,7.18
2023-04-26T22:23:32.234Z,7.78
2023-04-26T22:26:00.784Z,7.32
2023-04-26T22:28:29.270Z,8.10
2023-04-26T22:30:57.751Z,8.52
2023-04-26T22:33:26.336Z,8.45
2023-04-26T22:35:58.030Z,10.05
2023-04-26T22:38:28.051Z,10.25
2023-04-26T22:40:56.356Z,10.45
2023-04-26T22:43:24.937Z,9.57
2023-04-26T22:45:53.246Z,10.27
2023-04-26T22:48:21.851Z,9.82
2023-04-26T22:50:50.747Z,9.63
2023-04-26T22:53:19.276Z,9.82
2023-04-26T22:55:51.857Z,10.32
2023-04-26T22:58:20.328Z,10.07
2023-04-26T23:00:48.485Z,8.82
2023-04-26T23:03:17.171Z,9.02
2023-04-26T23:05:45.705Z,9.48
2023-04-26T23:08:14.151Z,10.18
2023-04-26T23:10:42.336Z,9.35
2023-04-26T23:13:12.229Z,8.68
2023-04-26T23:15:40.477Z,9.82
2023-04-26T23:18:09.646Z,8.80
2023-04-26T23:20:38.092Z,9.35
2023-04-26T23:23:06.745Z,9.38
2023-04-26T23:25:35.090Z,9.45
2023-04-26T23:28:03.655Z,8.80
2023-04-26T23:30:33.260Z,8.55
2023-04-26T23:33:01.905Z,9.10
2023-04-26T23:35:30.238Z,8.73
2023-04-26T23:37:58.774Z,9.35
2023-04-26T23:40:27.155Z,9.13
2023-04-26T23:42:55.867Z,9.82
2023-04-26T23:45:24.159Z,9.05
2023-04-26T23:47:54.405Z,8.60
2023-04-26T23:50:23.004Z,8.93
2023-04-26T23:52:51.542Z,9.50
2023-04-26T23:55:19.972Z,9.10
2023-04-26T23:57:48.585Z,9.70
